Time,TemperatureF,DewpointF,PressureIn,WindDirection,WindDirectionDegrees,WindSpeedMPH,WindSpeedGustMPH,Humidity,HourlyPrecipIn,Conditions,Clouds,dailyrainin,SoftwareType,DateUTC
2013-04-20 00:05:00,39.4,32.0,29.88,South,173,2.0,12.0,76,0.00,,,0.65,weatherlink.com 1.10,2013-04-20 04:05:00,
2013-04-20 00:20:00,39.1,32.0,29.88,South,174,6.0,12.0,77,0.00,,,0.65,weatherlink.com 1.10,2013-04-20 04:20:00,
2013-04-20 00:35:00,39.0,33.0,29.88,South,169,0.0,12.0,78,0.00,,,0.65,weatherlink.com 1.10,2013-04-20 04:35:00,
2013-04-20 00:50:00,38.6,32.0,29.88,South,172,1.0,12.0,78,0.00,,,0.00,weatherlink.com 1.10,2013-04-20 04:50:00,
2013-04-20 01:05:00,38.6,32.0,29.88,South,172,2.0,14.0,77,0.00,,,0.00,weatherlink.com 1.10,2013-04-20 05:05:00,
2013-04-20 01:20:00,38.3,32.0,29.88,South,174,5.0,10.0,77,0.00,,,0.00,weatherlink.com 1.10,2013-04-20 05:20:00,
2013-04-20 01:35:00,38.1,32.0,29.87,South,173,6.0,13.0,77,0.00,,,0.00,weatherlink.com 1.10,2013-04-20 05:35:00,
2013-04-20 01:50:00,37.6,31.0,29.88,South,174,3.0,15.0,76,0.00,,,0.00,weatherlink.com 1.10,2013-04-20 05:50:00,
2013-04-20 02:05:00,37.4,30.0,29.87,South,170,4.0,10.0,74,0.00,,,0.00,weatherlink.com 1.10,2013-04-20 06:05:00,
2013-04-20 02:20:00,36.9,29.0,29.88,South,176,4.0,11.0,73,0.00,,,0.00,weatherlink.com 1.10,2013-04-20 06:20:00,
2013-04-20 02:35:00,36.6,28.0,29.88,SSE,167,2.0,12.0,72,0.00,,,0.00,weatherlink.com 1.10,2013-04-20 06:35:00,
2013-04-20 02:50:00,36.1,28.0,29.88,South,174,2.0,12.0,73,0.00,,,0.00,weatherlink.com 1.10,2013-04-20 06:50:00,
2013-04-20 03:05:00,35.9,28.0,29.88,South,170,2.0,15.0,72,0.00,,,0.00,weatherlink.com 1.10,2013-04-20 07:05:00,
2013-04-20 03:20:00,35.7,27.0,29.88,South,169,4.0,13.0,72,0.00,,,0.00,weatherlink.com 1.10,2013-04-20 07:20:00,
2013-04-20 03:35:00,35.5,28.0,29.89,SSE,168,4.0,13.0,73,0.00,,,0.00,weatherlink.com 1.10,2013-04-20 07:35:00,
2013-04-20 03:50:00,35.4,28.0,29.89,South,172,4.0,11.0,73,0.00,,,0.00,weatherlink.com 1.10,2013-04-20 07:50:00,
2013-04-20 04:05:00,35.2,28.0,29.90,South,170,4.0,12.0,74,0.00,,,0.00,weatherlink.com 1.10,2013-04-20 08:05:00,
2013-04-20 04:20:00,35.3,27.0,29.91,South,178,8.0,16.0,73,0.00,,,0.00,weatherlink.com 1.10,2013-04-20 08:20:00,
2013-04-20 04:35:00,35.0,28.0,29.92,South,174,3.0,11.0,74,0.00,,,0.00,weatherlink.com 1.10,2013-04-20 08:35:00,
2013-04-20 04:50:00,34.5,26.0,29.93,SSE,165,7.0,10.0,72,0.00,,,0.00,weatherlink.com 1.10,2013-04-20 08:50:00,
2013-04-20 05:05:00,34.3,26.0,29.93,South,170,0.0,8.0,72,0.00,,,0.00,weatherlink.com 1.10,2013-04-20 09:05:00,
2013-04-20 05:20:00,34.0,26.0,29.93,South,171,2.0,11.0,73,0.00,,,0.00,weatherlink.com 1.10,2013-04-20 09:20:00,
2013-04-20 05:35:00,33.6,26.0,29.94,South,174,4.0,5.0,74,0.00,,,0.00,weatherlink.com 1.10,2013-04-20 09:35:00,
2013-04-20 05:51:00,33.3,26.0,29.94,South,170,1.0,10.0,73,0.00,,,0.00,weatherlink.com 1.10,2013-04-20 09:51:00,
2013-04-20 06:06:00,33.6,25.0,29.94,South,174,1.0,11.0,70,0.00,,,0.00,weatherlink.com 1.10,2013-04-20 10:06:00,
2013-04-20 06:21:00,33.2,24.0,29.95,South,170,0.0,9.0,70,0.00,,,0.00,weatherlink.com 1.10,2013-04-20 10:21:00,
2013-04-20 06:36:00,32.9,24.0,29.95,South,175,0.0,7.0,69,0.00,,,0.00,weatherlink.com 1.10,2013-04-20 10:36:00,
2013-04-20 06:51:00,32.9,23.0,29.96,SSE,166,1.0,12.0,68,0.00,,,0.00,weatherlink.com 1.10,2013-04-20 10:51:00,
2013-04-20 07:06:00,33.5,23.0,29.98,South,170,2.0,10.0,66,0.00,,,0.00,weatherlink.com 1.10,2013-04-20 11:06:00,
2013-04-20 07:21:00,34.5,24.0,29.98,SSE,167,2.0,8.0,65,0.00,,,0.00,weatherlink.com 1.10,2013-04-20 11:21:00,
2013-04-20 07:36:00,35.5,24.0,29.99,South,174,2.0,13.0,63,0.00,,,0.00,weatherlink.com 1.10,2013-04-20 11:36:00,
2013-04-20 07:51:00,36.3,24.0,30.00,South,169,5.0,6.0,62,0.00,,,0.00,weatherlink.com 1.10,2013-04-20 11:51:00,
2013-04-20 08:06:00,36.6,25.0,30.01,SSE,166,1.0,11.0,62,0.00,,,0.00,weatherlink.com 1.10,2013-04-20 12:06:00,
2013-04-20 08:21:00,38.1,25.0,30.01,South,173,4.0,7.0,59,0.00,,,0.00,weatherlink.com 1.10,2013-04-20 12:21:00,
2013-04-20 08:36:00,38.8,26.0,30.02,South,172,1.0,8.0,60,0.00,,,0.00,weatherlink.com 1.10,2013-04-20 12:36:00,
2013-04-20 08:51:00,40.6,23.0,30.02,South,174,1.0,9.0,50,0.00,,,0.00,weatherlink.com 1.10,2013-04-20 12:51:00,
2013-04-20 09:06:00,41.4,23.0,30.03,South,169,2.0,9.0,48,0.00,,,0.00,weatherlink.com 1.10,2013-04-20 13:06:00,
2013-04-20 09:21:00,42.6,24.0,30.04,South,183,0.0,10.0,48,0.00,,,0.00,weatherlink.com 1.10,2013-04-20 13:21:00,
2013-04-20 09:36:00,43.5,23.0,30.04,South,179,2.0,9.0,45,0.00,,,0.00,weatherlink.com 1.10,2013-04-20 13:36:00,
2013-04-20 10:06:00,45.2,26.0,30.05,South,175,3.0,7.0,48,0.00,,,0.00,weatherlink.com 1.10,2013-04-20 14:06:00,
2013-04-20 10:21:00,44.9,26.0,30.06,SSE,167,9.0,12.0,48,0.00,,,0.00,weatherlink.com 1.10,2013-04-20 14:21:00,
2013-04-20 10:36:00,46.2,26.0,30.06,South,172,1.0,7.0,46,0.00,,,0.00,weatherlink.com 1.10,2013-04-20 14:36:00,
2013-04-20 10:51:00,46.2,26.0,30.07,South,170,1.0,8.0,45,0.00,,,0.00,weatherlink.com 1.10,2013-04-20 14:51:00,
2013-04-20 11:06:00,47.5,27.0,30.07,South,172,4.0,8.0,45,0.00,,,0.00,weatherlink.com 1.10,2013-04-20 15:06:00,
2013-04-20 11:21:00,48.3,27.0,30.07,South,172,0.0,8.0,43,0.00,,,0.00,weatherlink.com 1.10,2013-04-20 15:21:00,
2013-04-20 11:36:00,47.9,27.0,30.07,SSE,167,7.0,14.0,45,0.00,,,0.00,weatherlink.com 1.10,2013-04-20 15:36:00,
2013-04-20 11:51:00,48.2,27.0,30.08,South,170,2.0,12.0,44,0.00,,,0.00,weatherlink.com 1.10,2013-04-20 15:51:00,
2013-04-20 12:07:00,48.6,26.0,30.08,South,169,1.0,10.0,42,0.00,,,0.00,weatherlink.com 1.10,2013-04-20 16:07:00,
2013-04-20 12:22:00,50.0,28.0,30.08,South,172,2.0,10.0,43,0.00,,,0.00,weatherlink.com 1.10,2013-04-20 16:22:00,
2013-04-20 12:37:00,50.2,27.0,30.07,South,169,2.0,13.0,41,0.00,,,0.00,weatherlink.com 1.10,2013-04-20 16:37:00,
2013-04-20 12:52:00,51.6,29.0,30.07,South,169,2.0,9.0,42,0.00,,,0.00,weatherlink.com 1.10,2013-04-20 16:52:00,
2013-04-20 13:07:00,52.4,31.0,30.07,South,170,1.0,6.0,44,0.00,,,0.00,weatherlink.com 1.10,2013-04-20 17:07:00,
2013-04-20 13:22:00,52.3,28.0,30.07,South,174,1.0,11.0,39,0.00,,,0.00,weatherlink.com 1.10,2013-04-20 17:22:00,
2013-04-20 13:37:00,52.7,29.0,30.07,SSE,159,8.0,-999.0,41,-99.99,,,0.00,weatherlink.com 1.10,2013-04-20 17:37:00,
2013-04-20 13:52:00,54.1,31.0,30.07,South,172,7.0,10.0,41,0.00,,,0.00,weatherlink.com 1.10,2013-04-20 17:52:00,
2013-04-20 14:07:00,53.2,28.0,30.07,SSE,167,7.0,12.0,38,0.00,,,0.00,weatherlink.com 1.10,2013-04-20 18:07:00,
2013-04-20 14:22:00,52.9,30.0,30.07,South,170,0.0,8.0,41,0.00,,,0.00,weatherlink.com 1.10,2013-04-20 18:22:00,
2013-04-20 14:37:00,54.2,28.0,30.07,South,170,2.0,8.0,37,0.00,,,0.00,weatherlink.com 1.10,2013-04-20 18:37:00,
2013-04-20 14:52:00,53.9,27.0,30.08,South,170,3.0,15.0,35,0.00,,,0.00,weatherlink.com 1.10,2013-04-20 18:52:00,
2013-04-20 15:07:00,54.4,28.0,30.07,SSE,166,1.0,11.0,37,0.00,,,0.00,weatherlink.com 1.10,2013-04-20 19:07:00,
2013-04-20 15:22:00,54.3,29.0,30.07,South,169,2.0,12.0,38,0.00,,,0.00,weatherlink.com 1.10,2013-04-20 19:22:00,
2013-04-20 15:37:00,54.6,29.0,30.07,SSE,167,6.0,13.0,37,0.00,,,0.00,weatherlink.com 1.10,2013-04-20 19:37:00,
2013-04-20 15:52:00,55.0,28.0,30.07,South,169,2.0,9.0,35,0.00,,,0.00,weatherlink.com 1.10,2013-04-20 19:52:00,
2013-04-20 16:07:00,55.0,27.0,30.07,South,169,9.0,11.0,34,0.00,,,0.00,weatherlink.com 1.10,2013-04-20 20:07:00,
2013-04-20 16:22:00,54.7,26.0,30.07,South,170,5.0,11.0,33,0.00,,,0.00,weatherlink.com 1.10,2013-04-20 20:22:00,
2013-04-20 16:37:00,55.0,28.0,30.08,SSE,166,1.0,11.0,35,0.00,,,0.00,weatherlink.com 1.10,2013-04-20 20:37:00,
2013-04-20 16:52:00,55.6,28.0,30.08,SSE,165,1.0,11.0,35,0.00,,,0.00,weatherlink.com 1.10,2013-04-20 20:52:00,
2013-04-20 17:07:00,55.8,29.0,30.08,SSE,167,1.0,10.0,36,0.00,,,0.00,weatherlink.com 1.10,2013-04-20 21:07:00,
2013-04-20 17:22:00,55.6,27.0,30.09,SSE,167,3.0,10.0,34,0.00,,,0.00,weatherlink.com 1.10,2013-04-20 21:22:00,
2013-04-20 17:37:00,55.1,26.0,30.09,South,169,5.0,8.0,32,0.00,,,0.00,weatherlink.com 1.10,2013-04-20 21:37:00,
2013-04-20 17:52:00,55.6,26.0,30.09,South,170,1.0,8.0,32,0.00,,,0.00,weatherlink.com 1.10,2013-04-20 21:52:00,
2013-04-20 18:07:00,54.4,26.0,30.09,SSE,167,1.0,11.0,33,0.00,,,0.00,weatherlink.com 1.10,2013-04-20 22:07:00,
2013-04-20 18:22:00,54.1,27.0,30.09,South,170,0.0,5.0,35,0.00,,,0.00,weatherlink.com 1.10,2013-04-20 22:22:00,
2013-04-20 18:37:00,53.2,27.0,30.10,South,170,0.0,5.0,37,0.00,,,0.00,weatherlink.com 1.10,2013-04-20 22:37:00,
2013-04-20 18:52:00,52.5,29.0,30.10,South,170,1.0,5.0,40,0.00,,,0.00,weatherlink.com 1.10,2013-04-20 22:52:00,
2013-04-20 19:07:00,51.1,28.0,30.10,SSE,167,1.0,4.0,41,0.00,,,0.00,weatherlink.com 1.10,2013-04-20 23:07:00,
2013-04-20 19:22:00,49.6,28.0,30.11,South,172,1.0,8.0,44,0.00,,,0.00,weatherlink.com 1.10,2013-04-20 23:22:00,
2013-04-20 19:37:00,48.4,28.0,30.11,South,173,1.0,9.0,46,0.00,,,0.00,weatherlink.com 1.10,2013-04-20 23:37:00,
2013-04-20 19:52:00,47.4,28.0,30.11,South,173,0.0,6.0,48,0.00,,,0.00,weatherlink.com 1.10,2013-04-20 23:52:00,
2013-04-20 20:07:00,46.6,28.0,30.12,South,172,0.0,7.0,48,0.00,,,0.00,weatherlink.com 1.10,2013-04-21 00:07:00,
2013-04-20 20:22:00,46.1,28.0,30.14,South,172,3.0,6.0,50,0.00,,,0.00,weatherlink.com 1.10,2013-04-21 00:22:00,
2013-04-20 20:37:00,45.5,28.0,30.15,South,173,1.0,5.0,51,0.00,,,0.00,weatherlink.com 1.10,2013-04-21 00:37:00,
2013-04-20 20:52:00,45.2,28.0,30.15,South,175,1.0,7.0,52,0.00,,,0.00,weatherlink.com 1.10,2013-04-21 00:52:00,
2013-04-20 21:07:00,45.2,28.0,30.16,South,174,6.0,6.0,52,0.00,,,0.00,weatherlink.com 1.10,2013-04-21 01:07:00,
2013-04-20 21:22:00,44.9,28.0,30.17,SSE,167,3.0,7.0,52,0.00,,,0.00,weatherlink.com 1.10,2013-04-21 01:22:00,
2013-04-20 21:37:00,44.6,28.0,30.17,SSE,167,0.0,3.0,53,0.00,,,0.00,weatherlink.com 1.10,2013-04-21 01:37:00,
2013-04-20 21:53:00,44.4,28.0,30.18,SSE,168,0.0,3.0,52,0.00,,,0.00,weatherlink.com 1.10,2013-04-21 01:53:00,
2013-04-20 22:08:00,44.4,28.0,30.19,SSE,167,0.0,3.0,52,0.00,,,0.00,weatherlink.com 1.10,2013-04-21 02:08:00,
2013-04-20 22:23:00,44.1,27.0,30.19,SSE,168,0.0,3.0,52,0.00,,,0.00,weatherlink.com 1.10,2013-04-21 02:23:00,
2013-04-20 22:38:00,44.1,27.0,30.19,SSE,167,0.0,2.0,51,0.00,,,0.00,weatherlink.com 1.10,2013-04-21 02:38:00,
2013-04-20 22:53:00,43.8,27.0,30.20,SSE,167,1.0,1.0,52,0.00,,,0.00,weatherlink.com 1.10,2013-04-21 02:53:00,
2013-04-20 23:08:00,43.8,27.0,30.20,SSE,167,0.0,2.0,51,0.00,,,0.00,weatherlink.com 1.10,2013-04-21 03:08:00,
2013-04-20 23:23:00,44.0,25.0,30.20,SSE,167,0.0,1.0,48,0.00,,,0.00,weatherlink.com 1.10,2013-04-21 03:23:00,
2013-04-20 23:38:00,43.7,25.0,30.20,SSE,167,0.0,0.0,48,0.00,,,0.00,weatherlink.com 1.10,2013-04-21 03:38:00,
2013-04-20 23:53:00,43.3,25.0,30.20,SSE,167,0.0,0.0,49,0.00,,,0.00,weatherlink.com 1.10,2013-04-21 03:53:00,